sensor_id;sensor_type;location;lat;lon;timestamp;pressure;altitude;pressure_sealevel;temperature;humidity
31285;BME280;56605;51.516;6.742;2023-10-09T00:00:55;101846.94;;;18.38;100.00
31285;BME280;56605;51.516;6.742;2023-10-09T00:03:35;101857.31;;;18.56;100.00
31285;BME280;56605;51.516;6.742;2023-10-09T00:06:02;101851.91;;;18.56;100.00
31285;BME280;56605;51.516;6.742;2023-10-09T00:08:27;101850.28;;;18.40;100.00
31285;BME280;56605;51.516;6.742;2023-10-09T00:10:57;101860.19;;;18.55;100.00
31285;BME280;56605;51.516;6.742;2023-10-09T00:13:43;101856.59;;;18.47;100.00
31285;BME280;56605;51.516;6.742;2023-10-09T00:16:18;101856.09;;;18.37;100.00
31285;BME280;56605;51.516;6.742;2023-10-09T00:19:05;101855.69;;;18.40;100.00
31285;BME280;56605;51.516;6.742;2023-10-09T00:21:45;101840.63;;;18.31;100.00
31285;BME280;56605;51.516;6.742;2023-10-09T00:24:11;101829.88;;;18.37;100.00
31285;BME280;56605;51.516;6.742;2023-10-09T00:26:44;101831.28;;;18.33;100.00
31285;BME280;56605;51.516;6.742;2023-10-09T00:29:14;101826.41;;;18.44;100.00
31285;BME280;56605;51.516;6.742;2023-10-09T00:32:02;101816.44;;;18.44;100.00
31285;BME280;56605;51.516;6.742;2023-10-09T00:34:39;101804.84;;;18.50;100.00
31285;BME280;56605;51.516;6.742;2023-10-09T00:37:08;101813.16;;;18.78;100.00
31285;BME280;56605;51.516;6.742;2023-10-09T00:39:48;101818.56;;;18.78;100.00
31285;BME280;56605;51.516;6.742;2023-10-09T00:42:14;101821.13;;;18.86;100.00
31285;BME280;56605;51.516;6.742;2023-10-09T00:44:51;101826.66;;;18.99;100.00
31285;BME280;56605;51.516;6.742;2023-10-09T00:47:17;101812.63;;;18.89;100.00
31285;BME280;56605;51.516;6.742;2023-10-09T00:49:54;101799.25;;;18.81;100.00
31285;BME280;56605;51.516;6.742;2023-10-09T00:52:26;101791.13;;;18.81;100.00
31285;BME280;56605;51.516;6.742;2023-10-09T00:55:00;101797.03;;;18.91;100.00
31285;BME280;56605;51.516;6.742;2023-10-09T00:57:30;101797.72;;;18.71;100.00
31285;BME280;56605;51.516;6.742;2023-10-09T00:59:59;101807.03;;;18.91;100.00
31285;BME280;56605;51.516;6.742;2023-10-09T01:02:28;101808.38;;;18.80;100.00
31285;BME280;56605;51.516;6.742;2023-10-09T01:05:04;101785.91;;;18.79;100.00
31285;BME280;56605;51.516;6.742;2023-10-09T01:07:37;101779.97;;;18.91;100.00
31285;BME280;56605;51.516;6.742;2023-10-09T01:10:09;101783.50;;;18.91;100.00
31285;BME280;56605;51.516;6.742;2023-10-09T01:12:36;101782.78;;;18.75;100.00
31285;BME280;56605;51.516;6.742;2023-10-09T01:15:08;101787.28;;;18.97;100.00
31285;BME280;56605;51.516;6.742;2023-10-09T01:17:34;101788.78;;;18.71;100.00
31285;BME280;56605;51.516;6.742;2023-10-09T01:20:04;101784.06;;;18.80;100.00
31285;BME280;56605;51.516;6.742;2023-10-09T01:22:30;101782.72;;;18.97;100.00
31285;BME280;56605;51.516;6.742;2023-10-09T01:24:55;101784.94;;;18.87;100.00
31285;BME280;56605;51.516;6.742;2023-10-09T01:27:21;101788.69;;;18.86;100.00
31285;BME280;56605;51.516;6.742;2023-10-09T01:29:49;101801.16;;;18.87;100.00
31285;BME280;56605;51.516;6.742;2023-10-09T01:32:17;101805.19;;;18.69;100.00
31285;BME280;56605;51.516;6.742;2023-10-09T01:34:44;101792.91;;;18.67;100.00
31285;BME280;56605;51.516;6.742;2023-10-09T01:37:12;101799.13;;;18.67;100.00
31285;BME280;56605;51.516;6.742;2023-10-09T01:39:46;101805.78;;;18.65;100.00
31285;BME280;56605;51.516;6.742;2023-10-09T01:42:14;101801.81;;;18.38;100.00
31285;BME280;56605;51.516;6.742;2023-10-09T01:44:49;101791.13;;;18.30;100.00
31285;BME280;56605;51.516;6.742;2023-10-09T01:47:14;101789.81;;;18.48;100.00
31285;BME280;56605;51.516;6.742;2023-10-09T01:49:40;101795.47;;;18.46;100.00
31285;BME280;56605;51.516;6.742;2023-10-09T01:52:09;101802.44;;;18.41;100.00
31285;BME280;56605;51.516;6.742;2023-10-09T01:54:38;101795.56;;;18.38;100.00
31285;BME280;56605;51.516;6.742;2023-10-09T01:57:09;101794.41;;;18.47;100.00
31285;BME280;56605;51.516;6.742;2023-10-09T01:59:38;101802.84;;;18.37;100.00
31285;BME280;56605;51.516;6.742;2023-10-09T02:02:05;101798.03;;;18.33;100.00
31285;BME280;56605;51.516;6.742;2023-10-09T02:04:39;101793.53;;;18.40;100.00
31285;BME280;56605;51.516;6.742;2023-10-09T02:07:07;101790.88;;;18.25;100.00
31285;BME280;56605;51.516;6.742;2023-10-09T02:09:35;101785.91;;;18.29;100.00
31285;BME280;56605;51.516;6.742;2023-10-09T02:12:01;101786.53;;;18.24;100.00
31285;BME280;56605;51.516;6.742;2023-10-09T02:14:27;101782.56;;;18.48;100.00
31285;BME280;56605;51.516;6.742;2023-10-09T02:16:53;101787.19;;;18.55;100.00
31285;BME280;56605;51.516;6.742;2023-10-09T02:19:43;101783.22;;;18.50;100.00
31285;BME280;56605;51.516;6.742;2023-10-09T02:22:13;101788.16;;;18.47;100.00
31285;BME280;56605;51.516;6.742;2023-10-09T02:24:44;101782.03;;;18.60;100.00
31285;BME280;56605;51.516;6.742;2023-10-09T02:27:19;101787.69;;;18.65;100.00
31285;BME280;56605;51.516;6.742;2023-10-09T02:30:07;101788.94;;;18.62;100.00
31285;BME280;56605;51.516;6.742;2023-10-09T02:32:43;101781.22;;;18.59;100.00
31285;BME280;56605;51.516;6.742;2023-10-09T02:35:10;101786.31;;;18.47;100.00
31285;BME280;56605;51.516;6.742;2023-10-09T02:37:57;101774.78;;;18.67;100.00
31285;BME280;56605;51.516;6.742;2023-10-09T02:40:26;101769.44;;;18.45;100.00
31285;BME280;56605;51.516;6.742;2023-10-09T02:42:56;101768.06;;;18.56;100.00
31285;BME280;56605;51.516;6.742;2023-10-09T02:45:22;101762.91;;;18.61;100.00
31285;BME280;56605;51.516;6.742;2023-10-09T02:47:54;101760.66;;;18.65;100.00
31285;BME280;56605;51.516;6.742;2023-10-09T02:50:21;101763.94;;;18.60;100.00
31285;BME280;56605;51.516;6.742;2023-10-09T02:52:47;101767.50;;;18.61;100.00
31285;BME280;56605;51.516;6.742;2023-10-09T02:55:18;101761.22;;;18.60;100.00
31285;BME280;56605;51.516;6.742;2023-10-09T02:57:52;101772.75;;;18.69;100.00
31285;BME280;56605;51.516;6.742;2023-10-09T03:00:29;101767.50;;;18.61;100.00
31285;BME280;56605;51.516;6.742;2023-10-09T03:02:56;101760.75;;;18.79;100.00
31285;BME280;56605;51.516;6.742;2023-10-09T03:05:23;101744.97;;;18.54;100.00
31285;BME280;56605;51.516;6.742;2023-10-09T03:07:49;101744.66;;;18.70;100.00
31285;BME280;56605;51.516;6.742;2023-10-09T03:10:17;101746.25;;;18.58;100.00
31285;BME280;56605;51.516;6.742;2023-10-09T03:12:42;101738.91;;;18.52;100.00
31285;BME280;56605;51.516;6.742;2023-10-09T03:15:08;101746.09;;;18.66;100.00
31285;BME280;56605;51.516;6.742;2023-10-09T03:17:34;101744.94;;;18.82;100.00
31285;BME280;56605;51.516;6.742;2023-10-09T03:20:04;101740.53;;;18.74;100.00
31285;BME280;56605;51.516;6.742;2023-10-09T03:22:37;101736.50;;;18.63;100.00
31285;BME280;56605;51.516;6.742;2023-10-09T03:25:03;101729.75;;;18.81;100.00
31285;BME280;56605;51.516;6.742;2023-10-09T03:27:29;101718.09;;;18.81;100.00
31285;BME280;56605;51.516;6.742;2023-10-09T03:29:54;101726.38;;;18.72;100.00
31285;BME280;56605;51.516;6.742;2023-10-09T03:32:19;101724.19;;;18.89;100.00
31285;BME280;56605;51.516;6.742;2023-10-09T03:34:45;101713.16;;;18.91;100.00
31285;BME280;56605;51.516;6.742;2023-10-09T03:37:10;101692.78;;;18.95;100.00
31285;BME280;56605;51.516;6.742;2023-10-09T03:39:47;101704.16;;;18.84;100.00
31285;BME280;56605;51.516;6.742;2023-10-09T03:42:13;101703.00;;;18.65;100.00
31285;BME280;56605;51.516;6.742;2023-10-09T03:44:45;101703.47;;;18.68;100.00
31285;BME280;56605;51.516;6.742;2023-10-09T03:47:17;101702.22;;;18.71;100.00
31285;BME280;56605;51.516;6.742;2023-10-09T03:49:48;101708.28;;;18.44;100.00
31285;BME280;56605;51.516;6.742;2023-10-09T03:52:16;101702.50;;;18.83;100.00
31285;BME280;56605;51.516;6.742;2023-10-09T03:54:43;101701.84;;;18.81;100.00
31285;BME280;56605;51.516;6.742;2023-10-09T03:57:12;101700.00;;;18.81;100.00
31285;BME280;56605;51.516;6.742;2023-10-09T03:59:44;101703.50;;;18.75;100.00
31285;BME280;56605;51.516;6.742;2023-10-09T04:02:09;101699.91;;;18.68;100.00
31285;BME280;56605;51.516;6.742;2023-10-09T04:04:34;101705.16;;;18.76;100.00
31285;BME280;56605;51.516;6.742;2023-10-09T04:07:00;101698.53;;;18.79;100.00
31285;BME280;56605;51.516;6.742;2023-10-09T04:09:26;101704.28;;;18.69;100.00
31285;BME280;56605;51.516;6.742;2023-10-09T04:11:52;101703.06;;;18.71;100.00
31285;BME280;56605;51.516;6.742;2023-10-09T04:14:37;101701.66;;;18.82;100.00
31285;BME280;56605;51.516;6.742;2023-10-09T04:17:12;101697.69;;;18.78;100.00
31285;BME280;56605;51.516;6.742;2023-10-09T04:19:47;101695.97;;;18.70;100.00
31285;BME280;56605;51.516;6.742;2023-10-09T04:22:16;101692.41;;;18.63;100.00
31285;BME280;56605;51.516;6.742;2023-10-09T04:24:52;101694.50;;;18.68;100.00
31285;BME280;56605;51.516;6.742;2023-10-09T04:27:18;101693.31;;;18.77;100.00
31285;BME280;56605;51.516;6.742;2023-10-09T04:29:51;101697.28;;;18.81;100.00
31285;BME280;56605;51.516;6.742;2023-10-09T04:32:18;101697.81;;;18.63;100.00
31285;BME280;56605;51.516;6.742;2023-10-09T04:34:44;101695.34;;;18.68;100.00
31285;BME280;56605;51.516;6.742;2023-10-09T04:37:21;101682.66;;;18.69;100.00
31285;BME280;56605;51.516;6.742;2023-10-09T04:40:05;101675.84;;;18.80;100.00
31285;BME280;56605;51.516;6.742;2023-10-09T04:42:37;101681.78;;;18.61;100.00
31285;BME280;56605;51.516;6.742;2023-10-09T04:45:07;101681.63;;;18.70;100.00
31285;BME280;56605;51.516;6.742;2023-10-09T04:47:33;101672.25;;;18.66;100.00
31285;BME280;56605;51.516;6.742;2023-10-09T04:50:03;101687.91;;;18.77;100.00
31285;BME280;56605;51.516;6.742;2023-10-09T04:52:37;101693.91;;;18.72;100.00
31285;BME280;56605;51.516;6.742;2023-10-09T04:55:03;101687.72;;;18.79;100.00
31285;BME280;56605;51.516;6.742;2023-10-09T04:57:45;101694.41;;;18.83;100.00
31285;BME280;56605;51.516;6.742;2023-10-09T05:00:18;101687.47;;;18.73;100.00
31285;BME280;56605;51.516;6.742;2023-10-09T05:02:50;101685.88;;;18.86;100.00
31285;BME280;56605;51.516;6.742;2023-10-09T05:05:23;101687.63;;;18.65;100.00
31285;BME280;56605;51.516;6.742;2023-10-09T05:08:07;101688.06;;;18.69;100.00
31285;BME280;56605;51.516;6.742;2023-10-09T05:10:49;101691.53;;;18.56;100.00
31285;BME280;56605;51.516;6.742;2023-10-09T05:13:27;101692.84;;;18.67;100.00
31285;BME280;56605;51.516;6.742;2023-10-09T05:16:06;101695.28;;;18.61;100.00
31285;BME280;56605;51.516;6.742;2023-10-09T05:18:47;101697.00;;;18.62;100.00
31285;BME280;56605;51.516;6.742;2023-10-09T05:21:25;101722.09;;;18.56;100.00
31285;BME280;56605;51.516;6.742;2023-10-09T05:23:56;101721.53;;;18.61;100.00
31285;BME280;56605;51.516;6.742;2023-10-09T05:26:37;101736.31;;;18.65;100.00
31285;BME280;56605;51.516;6.742;2023-10-09T05:29:25;101737.97;;;18.66;100.00
31285;BME280;56605;51.516;6.742;2023-10-09T05:31:54;101737.16;;;18.66;100.00
31285;BME280;56605;51.516;6.742;2023-10-09T05:34:25;101740.88;;;18.65;100.00
31285;BME280;56605;51.516;6.742;2023-10-09T05:37:03;101740.19;;;18.56;100.00
31285;BME280;56605;51.516;6.742;2023-10-09T05:39:48;101731.97;;;18.42;100.00
31285;BME280;56605;51.516;6.742;2023-10-09T05:42:33;101739.03;;;18.65;100.00
31285;BME280;56605;51.516;6.742;2023-10-09T05:45:09;101737.97;;;18.66;100.00
31285;BME280;56605;51.516;6.742;2023-10-09T05:47:48;101734.00;;;18.62;100.00
31285;BME280;56605;51.516;6.742;2023-10-09T05:50:24;101750.91;;;18.42;100.00
31285;BME280;56605;51.516;6.742;2023-10-09T05:52:51;101755.88;;;18.67;100.00
31285;BME280;56605;51.516;6.742;2023-10-09T05:55:17;101758.16;;;18.63;100.00
31285;BME280;56605;51.516;6.742;2023-10-09T05:58:00;101755.38;;;18.57;100.00
31285;BME280;56605;51.516;6.742;2023-10-09T06:00:44;101751.84;;;18.56;100.00
31285;BME280;56605;51.516;6.742;2023-10-09T06:03:28;101768.84;;;18.50;100.00
31285;BME280;56605;51.516;6.742;2023-10-09T06:06:12;101768.47;;;18.53;100.00
31285;BME280;56605;51.516;6.742;2023-10-09T06:08:57;101786.50;;;18.46;100.00
31285;BME280;56605;51.516;6.742;2023-10-09T06:11:41;101777.25;;;18.62;100.00
31285;BME280;56605;51.516;6.742;2023-10-09T06:14:15;101784.41;;;18.70;100.00
31285;BME280;56605;51.516;6.742;2023-10-09T06:16:51;101788.81;;;18.78;100.00
31285;BME280;56605;51.516;6.742;2023-10-09T06:19:23;101790.41;;;18.65;100.00
31285;BME280;56605;51.516;6.742;2023-10-09T06:21:56;101789.72;;;18.56;100.00
31285;BME280;56605;51.516;6.742;2023-10-09T06:24:37;101788.66;;;18.57;100.00
31285;BME280;56605;51.516;6.742;2023-10-09T06:27:18;101786.41;;;18.61;100.00
31285;BME280;56605;51.516;6.742;2023-10-09T06:29:52;101789.94;;;18.61;100.00
31285;BME280;56605;51.516;6.742;2023-10-09T06:32:38;101773.41;;;18.49;100.00
31285;BME280;56605;51.516;6.742;2023-10-09T06:35:10;101781.50;;;18.71;100.00
31285;BME280;56605;51.516;6.742;2023-10-09T06:37:49;101767.88;;;18.58;100.00
31285;BME280;56605;51.516;6.742;2023-10-09T06:40:37;101757.88;;;18.58;100.00
31285;BME280;56605;51.516;6.742;2023-10-09T06:43:21;101763.28;;;18.58;100.00
31285;BME280;56605;51.516;6.742;2023-10-09T06:45:47;101792.94;;;18.73;100.00
31285;BME280;56605;51.516;6.742;2023-10-09T06:48:21;101803.38;;;18.76;100.00
31285;BME280;56605;51.516;6.742;2023-10-09T06:51:03;101801.72;;;18.75;100.00
31285;BME280;56605;51.516;6.742;2023-10-09T06:53:47;101790.13;;;18.88;100.00
31285;BME280;56605;51.516;6.742;2023-10-09T06:56:25;101798.66;;;18.85;100.00
31285;BME280;56605;51.516;6.742;2023-10-09T06:59:01;101799.13;;;18.96;100.00
31285;BME280;56605;51.516;6.742;2023-10-09T07:01:41;101795.06;;;18.78;100.00
31285;BME280;56605;51.516;6.742;2023-10-09T07:04:12;101796.38;;;18.60;100.00
31285;BME280;56605;51.516;6.742;2023-10-09T07:06:47;101793.50;;;18.91;100.00
31285;BME280;56605;51.516;6.742;2023-10-09T07:09:14;101797.09;;;19.05;100.00
31285;BME280;56605;51.516;6.742;2023-10-09T07:11:42;101795.16;;;18.92;100.00
31285;BME280;56605;51.516;6.742;2023-10-09T07:14:16;101799.44;;;18.79;100.00
31285;BME280;56605;51.516;6.742;2023-10-09T07:19:49;101800.59;;;18.98;100.00
31285;BME280;56605;51.516;6.742;2023-10-09T07:22:15;101797.59;;;18.86;100.00
31285;BME280;56605;51.516;6.742;2023-10-09T07:24:47;101786.47;;;18.96;100.00
31285;BME280;56605;51.516;6.742;2023-10-09T07:27:30;101770.16;;;18.89;100.00
31285;BME280;56605;51.516;6.742;2023-10-09T07:30:31;101760.66;;;19.00;100.00
31285;BME280;56605;51.516;6.742;2023-10-09T07:32:57;101761.09;;;19.04;100.00
31285;BME280;56605;51.516;6.742;2023-10-09T07:35:48;101774.91;;;19.16;100.00
31285;BME280;56605;51.516;6.742;2023-10-09T07:38:20;101785.06;;;19.07;100.00
31285;BME280;56605;51.516;6.742;2023-10-09T07:40:51;101788.72;;;19.21;100.00
31285;BME280;56605;51.516;6.742;2023-10-09T07:43:38;101785.25;;;19.06;100.00
31285;BME280;56605;51.516;6.742;2023-10-09T07:46:07;101784.06;;;19.08;100.00
31285;BME280;56605;51.516;6.742;2023-10-09T07:48:51;101784.81;;;19.02;100.00
31285;BME280;56605;51.516;6.742;2023-10-09T07:51:21;101771.41;;;18.87;100.00
31285;BME280;56605;51.516;6.742;2023-10-09T07:53:56;101785.22;;;18.99;100.00
31285;BME280;56605;51.516;6.742;2023-10-09T07:56:37;101783.69;;;19.18;100.00
31285;BME280;56605;51.516;6.742;2023-10-09T07:59:06;101798.16;;;19.32;100.00
31285;BME280;56605;51.516;6.742;2023-10-09T08:01:43;101826.53;;;19.14;100.00
31285;BME280;56605;51.516;6.742;2023-10-09T08:04:20;101827.38;;;19.15;100.00
31285;BME280;56605;51.516;6.742;2023-10-09T08:07:03;101822.22;;;19.62;100.00
31285;BME280;56605;51.516;6.742;2023-10-09T08:09:31;101838.31;;;19.35;100.00
31285;BME280;56605;51.516;6.742;2023-10-09T08:12:13;101836.75;;;19.55;100.00
31285;BME280;56605;51.516;6.742;2023-10-09T08:14:42;101839.44;;;19.48;100.00
31285;BME280;56605;51.516;6.742;2023-10-09T08:17:11;101821.22;;;19.28;100.00
31285;BME280;56605;51.516;6.742;2023-10-09T08:19:45;101825.44;;;19.37;100.00
31285;BME280;56605;51.516;6.742;2023-10-09T08:22:23;101817.59;;;19.56;100.00
31285;BME280;56605;51.516;6.742;2023-10-09T08:24:49;101807.75;;;19.42;100.00
31285;BME280;56605;51.516;6.742;2023-10-09T08:30:02;101814.50;;;19.17;100.00
31285;BME280;56605;51.516;6.742;2023-10-09T08:32:50;101833.63;;;19.51;100.00
31285;BME280;56605;51.516;6.742;2023-10-09T08:35:50;101804.50;;;19.18;100.00
31285;BME280;56605;51.516;6.742;2023-10-09T08:38:17;101802.44;;;19.20;100.00
31285;BME280;56605;51.516;6.742;2023-10-09T08:40:50;101785.41;;;19.26;100.00
31285;BME280;56605;51.516;6.742;2023-10-09T08:43:21;101766.00;;;19.16;100.00
31285;BME280;56605;51.516;6.742;2023-10-09T08:45:51;101739.88;;;19.01;100.00
31285;BME280;56605;51.516;6.742;2023-10-09T08:48:19;101738.44;;;19.05;100.00
31285;BME280;56605;51.516;6.742;2023-10-09T08:50:45;101734.19;;;19.31;100.00
31285;BME280;56605;51.516;6.742;2023-10-09T08:53:12;101712.97;;;19.35;100.00
31285;BME280;56605;51.516;6.742;2023-10-09T08:55:38;101690.25;;;19.29;100.00
31285;BME280;56605;51.516;6.742;2023-10-09T08:58:05;101703.41;;;19.39;100.00
31285;BME280;56605;51.516;6.742;2023-10-09T09:00:49;101713.03;;;19.48;100.00
31285;BME280;56605;51.516;6.742;2023-10-09T09:03:15;101724.31;;;19.66;100.00
31285;BME280;56605;51.516;6.742;2023-10-09T09:05:45;101714.19;;;20.01;100.00
31285;BME280;56605;51.516;6.742;2023-10-09T09:08:25;101736.72;;;20.22;100.00
31285;BME280;56605;51.516;6.742;2023-10-09T09:11:13;101759.84;;;20.65;100.00
31285;BME280;56605;51.516;6.742;2023-10-09T09:13:52;101766.09;;;20.52;100.00
31285;BME280;56605;51.516;6.742;2023-10-09T09:16:32;101761.28;;;20.61;100.00
31285;BME280;56605;51.516;6.742;2023-10-09T09:19:02;101764.19;;;20.87;100.00
31285;BME280;56605;51.516;6.742;2023-10-09T09:21:41;101761.09;;;20.56;100.00
31285;BME280;56605;51.516;6.742;2023-10-09T09:24:14;101755.41;;;20.85;100.00
31285;BME280;56605;51.516;6.742;2023-10-09T09:26:51;101759.22;;;20.57;100.00
31285;BME280;56605;51.516;6.742;2023-10-09T09:29:40;101757.97;;;20.39;100.00
31285;BME280;56605;51.516;6.742;2023-10-09T09:32:08;101767.16;;;20.45;100.00
31285;BME280;56605;51.516;6.742;2023-10-09T09:34:47;101764.84;;;20.48;100.00
31285;BME280;56605;51.516;6.742;2023-10-09T09:37:22;101771.53;;;20.66;100.00
31285;BME280;56605;51.516;6.742;2023-10-09T09:39:54;101775.88;;;20.81;100.00
31285;BME280;56605;51.516;6.742;2023-10-09T09:42:21;101786.53;;;20.89;100.00
31285;BME280;56605;51.516;6.742;2023-10-09T09:44:51;101796.91;;;21.19;100.00
31285;BME280;56605;51.516;6.742;2023-10-09T09:47:17;101799.88;;;20.97;100.00
31285;BME280;56605;51.516;6.742;2023-10-09T09:49:51;101804.88;;;21.07;100.00
31285;BME280;56605;51.516;6.742;2023-10-09T09:52:26;101804.00;;;21.27;100.00
31285;BME280;56605;51.516;6.742;2023-10-09T09:54:53;101809.97;;;21.42;100.00
31285;BME280;56605;51.516;6.742;2023-10-09T09:57:20;101809.22;;;21.81;100.00
31285;BME280;56605;51.516;6.742;2023-10-09T09:59:51;101810.84;;;21.96;100.00
31285;BME280;56605;51.516;6.742;2023-10-09T10:02:29;101809.25;;;22.13;100.00
31285;BME280;56605;51.516;6.742;2023-10-09T10:05:02;101800.06;;;21.69;100.00
31285;BME280;56605;51.516;6.742;2023-10-09T10:07:30;101808.13;;;21.43;100.00
31285;BME280;56605;51.516;6.742;2023-10-09T10:09:56;101813.28;;;21.51;100.00
31285;BME280;56605;51.516;6.742;2023-10-09T10:15:12;101819.59;;;21.45;100.00
31285;BME280;56605;51.516;6.742;2023-10-09T10:20:28;101812.56;;;21.31;100.00
31285;BME280;56605;51.516;6.742;2023-10-09T10:23:18;101814.44;;;21.30;100.00
31285;BME280;56605;51.516;6.742;2023-10-09T10:25:45;101810.66;;;21.38;100.00
31285;BME280;56605;51.516;6.742;2023-10-09T10:28:17;101812.25;;;21.52;100.00
31285;BME280;56605;51.516;6.742;2023-10-09T10:31:01;101815.59;;;21.54;100.00
31285;BME280;56605;51.516;6.742;2023-10-09T10:36:19;101819.91;;;22.15;100.00
31285;BME280;56605;51.516;6.742;2023-10-09T10:39:07;101809.13;;;22.01;100.00
31285;BME280;56605;51.516;6.742;2023-10-09T10:41:37;101809.88;;;21.76;100.00
31285;BME280;56605;51.516;6.742;2023-10-09T10:44:24;101805.94;;;21.65;100.00
31285;BME280;56605;51.516;6.742;2023-10-09T10:46:59;101796.03;;;21.85;100.00
31285;BME280;56605;51.516;6.742;2023-10-09T10:49:24;101800.19;;;21.94;100.00
31285;BME280;56605;51.516;6.742;2023-10-09T10:51:51;101785.94;;;21.99;100.00
31285;BME280;56605;51.516;6.742;2023-10-09T10:54:35;101796.31;;;21.76;100.00
31285;BME280;56605;51.516;6.742;2023-10-09T10:57:00;101807.09;;;22.22;100.00
31285;BME280;56605;51.516;6.742;2023-10-09T10:59:39;101806.25;;;22.22;100.00
31285;BME280;56605;51.516;6.742;2023-10-09T11:02:11;101798.25;;;22.01;100.00
31285;BME280;56605;51.516;6.742;2023-10-09T11:04:37;101807.91;;;21.97;100.00
31285;BME280;56605;51.516;6.742;2023-10-09T11:07:05;101812.88;;;22.33;100.00
31285;BME280;56605;51.516;6.742;2023-10-09T11:09:47;101819.63;;;21.91;100.00
31285;BME280;56605;51.516;6.742;2023-10-09T11:12:51;101806.81;;;22.30;100.00
31285;BME280;56605;51.516;6.742;2023-10-09T11:15:39;101812.81;;;22.39;100.00
31285;BME280;56605;51.516;6.742;2023-10-09T11:18:22;101811.63;;;22.28;100.00
31285;BME280;56605;51.516;6.742;2023-10-09T11:20:58;101807.63;;;22.06;100.00
31285;BME280;56605;51.516;6.742;2023-10-09T11:23:33;101801.44;;;22.24;100.00
31285;BME280;56605;51.516;6.742;2023-10-09T11:25:58;101806.75;;;22.37;100.00
31285;BME280;56605;51.516;6.742;2023-10-09T11:28:44;101808.00;;;22.41;100.00
31285;BME280;56605;51.516;6.742;2023-10-09T11:31:23;101817.19;;;22.73;100.00
31285;BME280;56605;51.516;6.742;2023-10-09T11:33:52;101809.19;;;22.97;100.00
31285;BME280;56605;51.516;6.742;2023-10-09T11:36:20;101794.31;;;22.99;100.00
31285;BME280;56605;51.516;6.742;2023-10-09T11:38:58;101801.25;;;23.70;100.00
31285;BME280;56605;51.516;6.742;2023-10-09T11:41:44;101801.72;;;23.11;100.00
31285;BME280;56605;51.516;6.742;2023-10-09T11:44:10;101796.47;;;24.27;100.00
31285;BME280;56605;51.516;6.742;2023-10-09T11:47:05;101792.47;;;23.99;100.00
31285;BME280;56605;51.516;6.742;2023-10-09T11:49:55;101792.63;;;23.36;100.00
31285;BME280;56605;51.516;6.742;2023-10-09T11:52:24;101788.94;;;23.11;100.00
31285;BME280;56605;51.516;6.742;2023-10-09T11:55:03;101778.94;;;23.61;100.00
31285;BME280;56605;51.516;6.742;2023-10-09T11:57:32;101782.03;;;22.90;100.00
31285;BME280;56605;51.516;6.742;2023-10-09T12:00:02;101784.84;;;23.21;100.00
31285;BME280;56605;51.516;6.742;2023-10-09T12:02:46;101787.72;;;23.07;100.00
31285;BME280;56605;51.516;6.742;2023-10-09T12:05:11;101782.19;;;23.51;100.00
31285;BME280;56605;51.516;6.742;2023-10-09T12:07:51;101788.72;;;23.13;100.00
31285;BME280;56605;51.516;6.742;2023-10-09T12:10:20;101781.59;;;23.49;100.00
31285;BME280;56605;51.516;6.742;2023-10-09T12:12:51;101782.94;;;22.84;100.00
31285;BME280;56605;51.516;6.742;2023-10-09T12:15:17;101772.66;;;23.04;100.00
31285;BME280;56605;51.516;6.742;2023-10-09T12:17:45;101776.22;;;23.24;100.00
31285;BME280;56605;51.516;6.742;2023-10-09T12:20:16;101773.56;;;23.36;100.00
31285;BME280;56605;51.516;6.742;2023-10-09T12:23:01;101777.94;;;22.80;100.00
31285;BME280;56605;51.516;6.742;2023-10-09T12:25:30;101787.56;;;23.02;100.00
31285;BME280;56605;51.516;6.742;2023-10-09T12:27:57;101776.59;;;23.46;100.00
31285;BME280;56605;51.516;6.742;2023-10-09T12:30:25;101784.78;;;23.27;100.00
31285;BME280;56605;51.516;6.742;2023-10-09T12:32:54;101782.44;;;23.50;100.00
31285;BME280;56605;51.516;6.742;2023-10-09T12:35:20;101790.06;;;23.60;100.00
31285;BME280;56605;51.516;6.742;2023-10-09T12:37:46;101778.78;;;23.56;100.00
31285;BME280;56605;51.516;6.742;2023-10-09T12:40:12;101776.44;;;23.60;100.00
31285;BME280;56605;51.516;6.742;2023-10-09T12:42:37;101781.03;;;23.59;100.00
31285;BME280;56605;51.516;6.742;2023-10-09T12:45:03;101790.78;;;23.67;100.00
31285;BME280;56605;51.516;6.742;2023-10-09T12:47:35;101785.25;;;23.74;100.00
31285;BME280;56605;51.516;6.742;2023-10-09T12:50:04;101779.78;;;23.74;100.00
31285;BME280;56605;51.516;6.742;2023-10-09T12:52:35;101783.03;;;23.83;100.00
31285;BME280;56605;51.516;6.742;2023-10-09T12:55:02;101779.06;;;23.97;100.00
31285;BME280;56605;51.516;6.742;2023-10-09T12:57:31;101780.97;;;24.09;100.00
31285;BME280;56605;51.516;6.742;2023-10-09T12:59:57;101778.53;;;24.19;100.00
31285;BME280;56605;51.516;6.742;2023-10-09T13:02:22;101778.88;;;24.23;100.00
31285;BME280;56605;51.516;6.742;2023-10-09T13:05:02;101772.69;;;24.15;100.00
31285;BME280;56605;51.516;6.742;2023-10-09T13:07:30;101771.09;;;24.38;100.00
31285;BME280;56605;51.516;6.742;2023-10-09T13:09:55;101762.88;;;24.26;100.00
31285;BME280;56605;51.516;6.742;2023-10-09T13:12:38;101768.22;;;23.90;100.00
31285;BME280;56605;51.516;6.742;2023-10-09T13:15:07;101772.56;;;24.10;100.00
31285;BME280;56605;51.516;6.742;2023-10-09T13:17:37;101769.22;;;24.08;100.00
31285;BME280;56605;51.516;6.742;2023-10-09T13:20:04;101769.53;;;24.30;100.00
31285;BME280;56605;51.516;6.742;2023-10-09T13:22:38;101778.06;;;24.82;99.84
31285;BME280;56605;51.516;6.742;2023-10-09T13:25:05;101771.09;;;24.74;100.00